Time;durP1;ratioP1;P1;durP2;ratioP2;P2;SDS_P1;SDS_P2;PMS_P1;PMS_P2;Temp;Humidity;BMP_temperature;BMP_pressure;BME280_temperature;BME280_humidity;BME280_pressure;Samples;Min_cycle;Max_cycle;Signal;HPM_P1;HPM_P2
2022/04/05 00:00:17;;;;;;;37.45;12.50;;;;;;;;;;4436999;32;19933;-74
2022/04/05 00:02:42;;;;;;;;;;;;;;;;;;4438367;32;20118;-74
2022/04/05 00:05:08;;;;;;;24.92;12.32;;;;;;;;;;4425224;32;20398;-75
2022/04/05 00:07:33;;;;;;;;;;;;;;;;;;4452707;32;20051;-71
2022/04/05 00:09:58;;;;;;;24.67;12.85;;;;;;;;;;4452716;32;20325;-74
2022/04/05 00:12:23;;;;;;;;;;;;;;;;;;4453141;32;20022;-76
2022/04/05 00:14:49;;;;;;;35.17;13.85;;;;;;;;;;4438079;32;19933;-75
2022/04/05 00:17:14;;;;;;;;;;;;;;;;;;4436713;32;20105;-73
2022/04/05 00:19:39;;;;;;;35.35;12.20;;;;;;;;;;4437468;32;20310;-74
2022/04/05 00:22:04;;;;;;;;;;;;;;;;;;4437159;32;20022;-77
2022/04/05 00:24:30;;;;;;;31.83;11.60;;;;;;;;;;4443880;32;20314;-73
2022/04/05 00:26:55;;;;;;;;;;;;;;;;;;4443422;32;20025;-75
2022/04/05 00:29:22;;;;;;;28.60;12.32;;;;;;;;;;4437219;32;19941;-75
2022/04/05 00:31:47;;;;;;;29.73;12.30;;;;;;;;;;4437112;32;20116;-74
2022/04/05 00:34:13;;;;;;;;;;;;;;;;;;4436874;32;20106;-74
2022/04/05 00:36:38;;;;;;;28.70;11.35;;;;;;;;;;4447903;32;19997;-75
2022/04/05 00:39:03;;;;;;;;;;;;;;;;;;4459321;26;20042;-74
2022/04/05 00:41:28;;;;;;;30.45;12.48;;;;;;;;;;4422969;32;20250;-76
2022/04/05 00:43:54;;;;;;;;;;;;;;;;;;4439042;32;20173;-76
2022/04/05 00:46:19;;;;;;;31.48;11.65;;;;;;;;;;4438280;32;19947;-76
2022/04/05 00:48:44;;;;;;;;;;;;;;;;;;4422350;32;20199;-75
2022/04/05 00:51:09;;;;;;;40.58;14.48;;;;;;;;;;4422939;32;20289;-75
2022/04/05 00:53:34;;;;;;;;;;;;;;;;;;4407687;32;20083;-75
2022/04/05 00:56:01;;;;;;;31.27;13.10;;;;;;;;;;4421291;32;19968;-75
2022/04/05 00:58:27;;;;;;;33.03;14.60;;;;;;;;;;4423283;32;20416;-76
2022/04/05 01:00:53;;;;;;;31.33;13.65;;;;;;;;;;4429486;32;20021;-76
2022/04/05 01:03:18;;;;;;;;;;;;;;;;;;4435745;32;20407;-76
2022/04/05 01:05:45;;;;;;;33.05;15.15;;;;;;;;;;4422583;32;19945;-76
2022/04/05 01:08:12;;;;;;;34.00;14.40;;;;;;;;;;4436702;32;20052;-76
2022/04/05 01:10:37;;;;;;;36.55;16.15;;;;;;;;;;4430017;32;20105;-75
2022/04/05 01:13:02;;;;;;;;;;;;;;;;;;4406744;32;20453;-75
2022/04/05 01:15:27;;;;;;;36.22;13.80;;;;;;;;;;4422026;32;19933;-76
2022/04/05 01:17:53;;;;;;;;;;;;;;;;;;4422005;32;20048;-76
2022/04/05 01:20:18;;;;;;;40.35;14.98;;;;;;;;;;4408053;32;19982;-76
2022/04/05 01:22:43;;;;;;;;;;;;;;;;;;4409218;32;20026;-76
2022/04/05 01:25:12;;;;;;;35.50;13.10;;;;;;;;;;4409887;32;19945;-77
2022/04/05 01:27:38;;;;;;;27.10;13.95;;;;;;;;;;4411535;32;20429;-76
2022/04/05 01:30:03;;;;;;;;;;;;;;;;;;4429380;32;20075;-76
2022/04/05 01:32:28;;;;;;;35.38;15.30;;;;;;;;;;4431471;32;19963;-76
2022/04/05 01:34:53;;;;;;;;;;;;;;;;;;4410088;32;20422;-76
2022/04/05 01:37:18;;;;;;;49.00;14.18;;;;;;;;;;4421470;32;19941;-76
2022/04/05 01:39:44;;;;;;;;;;;;;;;;;;4413636;32;20383;-76
2022/04/05 01:42:10;;;;;;;35.42;15.60;;;;;;;;;;4436233;32;19937;-76
2022/04/05 01:44:37;;;;;;;43.30;17.25;;;;;;;;;;4437255;32;20142;-76
2022/04/05 01:47:09;;;;;;;45.92;17.60;;;;;;;;;;4437613;32;20103;-76
2022/04/05 01:49:34;;;;;;;35.22;15.60;;;;;;;;;;4435230;32;20026;-76
2022/04/05 01:52:00;;;;;;;;;;;;;;;;;;4422810;32;20052;-76
2022/04/05 01:54:25;;;;;;;42.50;18.60;;;;;;;;;;4435626;32;20243;-77
2022/04/05 01:56:50;;;;;;;;;;;;;;;;;;4437321;32;20025;-78
2022/04/05 01:59:17;;;;;;;50.34;19.18;;;;;;;;;;4436894;32;19933;-76
2022/04/05 02:01:42;;;;;;;46.97;18.70;;;;;;;;;;4421789;32;20127;-77
2022/04/05 02:04:07;;;;;;;;;;;;;;;;;;4423415;32;20445;-77
2022/04/05 02:06:32;;;;;;;39.40;17.67;;;;;;;;;;4437303;32;19965;-77
2022/04/05 02:08:58;;;;;;;;;;;;;;;;;;4421641;32;20038;-77
2022/04/05 02:11:23;;;;;;;40.67;17.80;;;;;;;;;;4423387;32;19974;-76
2022/04/05 02:13:48;;;;;;;;;;;;;;;;;;4435196;32;20048;-76
2022/04/05 02:16:13;;;;;;;34.20;16.92;;;;;;;;;;4437174;32;20299;-76
2022/04/05 02:18:38;;;;;;;;;;;;;;;;;;4437043;32;20032;-76
2022/04/05 02:21:05;;;;;;;41.97;18.25;;;;;;;;;;4435256;32;19937;-76
2022/04/05 02:23:31;;;;;;;36.95;16.35;;;;;;;;;;4435655;32;20174;-76
2022/04/05 02:25:56;;;;;;;54.13;19.37;;;;;;;;;;4435985;32;20062;-76
2022/04/05 02:28:21;;;;;;;;;;;;;;;;;;4436338;32;20498;-76
2022/04/05 02:30:47;;;;;;;49.53;19.62;;;;;;;;;;4436417;32;19937;-77
2022/04/05 02:33:12;;;;;;;;;;;;;;;;;;4422814;32;20076;-76
2022/04/05 02:35:37;;;;;;;49.20;20.05;;;;;;;;;;4421352;32;20307;-75
2022/04/05 02:38:02;;;;;;;;;;;;;;;;;;4423192;32;20018;-77
2022/04/05 02:40:28;;;;;;;44.97;20.10;;;;;;;;;;4438195;32;19944;-76
2022/04/05 02:42:53;;;;;;;;;;;;;;;;;;4439207;32;20018;-78
2022/04/05 02:45:18;;;;;;;46.90;22.50;;;;;;;;;;4438359;32;19929;-77
2022/04/05 02:47:44;;;;;;;;;;;;;;;;;;4439724;32;20112;-76
2022/04/05 02:50:10;;;;;;;50.63;23.08;;;;;;;;;;4424413;32;19933;-77
2022/04/05 02:52:35;;;;;;;40.25;21.10;;;;;;;;;;4439706;32;20025;-77
2022/04/05 02:55:00;;;;;;;;;;;;;;;;;;4424986;32;20034;-77
2022/04/05 02:57:25;;;;;;;44.22;24.00;;;;;;;;;;4423817;32;19983;-77
2022/04/05 02:59:50;;;;;;;;;;;;;;;;;;4424729;32;20445;-76
2022/04/05 03:02:16;;;;;;;38.85;23.75;;;;;;;;;;4438145;32;19933;-77
2022/04/05 03:04:41;;;;;;;;;;;;;;;;;;4424048;32;20383;-77
2022/04/05 03:07:06;;;;;;;32.70;22.10;;;;;;;;;;4437015;32;19975;-77
2022/04/05 03:09:31;;;;;;;;;;;;;;;;;;4424827;32;20045;-77
2022/04/05 03:11:57;;;;;;;34.97;22.35;;;;;;;;;;4437908;32;19974;-77
2022/04/05 03:14:22;;;;;;;;;;;;;;;;;;4423614;32;20076;-77
2022/04/05 03:16:47;;;;;;;37.13;22.77;;;;;;;;;;4438523;32;19992;-76
2022/04/05 03:19:13;;;;;;;;;;;;;;;;;;4439273;32;20488;-77
2022/04/05 03:21:38;;;;;;;37.85;23.58;;;;;;;;;;4425670;32;20000;-76
2022/04/05 03:24:03;;;;;;;;;;;;;;;;;;4423618;32;20029;-76
2022/04/05 03:26:28;;;;;;;37.53;21.15;;;;;;;;;;4423281;32;19951;-77
2022/04/05 03:28:53;;;;;;;;;;;;;;;;;;4439323;32;20132;-77
2022/04/05 03:31:18;;;;;;;32.67;20.88;;;;;;;;;;4438509;32;19943;-77
2022/04/05 03:33:43;;;;;;;;;;;;;;;;;;4423814;32;20147;-76
2022/04/05 03:36:08;;;;;;;40.45;22.05;;;;;;;;;;4438535;32;19951;-77
2022/04/05 03:38:34;;;;;;;;;;;;;;;;;;4437912;32;20037;-75
2022/04/05 03:40:59;;;;;;;40.58;23.90;;;;;;;;;;4437800;32;19944;-77
2022/04/05 03:43:24;;;;;;;;;;;;;;;;;;4423821;32;20022;-77
2022/04/05 03:45:49;;;;;;;38.72;22.90;;;;;;;;;;4437466;32;19937;-77
2022/04/05 03:48:15;;;;;;;;;;;;;;;;;;4425149;32;20085;-77
2022/04/05 03:50:40;;;;;;;40.05;22.48;;;;;;;;;;4437163;32;20307;-77
2022/04/05 03:53:05;;;;;;;;;;;;;;;;;;4437381;32;20412;-76
2022/04/05 03:55:30;;;;;;;40.88;23.87;;;;;;;;;;4438166;32;19944;-76
2022/04/05 03:57:56;;;;;;;;;;;;;;;;;;4424094;32;20317;-77
2022/04/05 04:00:21;;;;;;;50.75;25.88;;;;;;;;;;4423595;32;19937;-77
2022/04/05 04:02:46;;;;;;;;;;;;;;;;;;4438149;32;20022;-77
2022/04/05 04:05:16;;;;;;;41.47;23.98;;;;;;;;;;4424552;32;19982;-76
2022/04/05 04:07:42;;;;;;;50.00;25.90;;;;;;;;;;4423241;32;20129;-77
2022/04/05 04:10:08;;;;;;;;;;;;;;;;;;4423507;32;20044;-77
2022/04/05 04:12:33;;;;;;;50.00;24.58;;;;;;;;;;4422976;32;19962;-77
2022/04/05 04:14:58;;;;;;;;;;;;;;;;;;4423301;32;20025;-77
2022/04/05 04:17:25;;;;;;;40.92;23.38;;;;;;;;;;4437155;32;20310;-77
2022/04/05 04:19:50;;;;;;;55.17;24.50;;;;;;;;;;4422827;32;20136;-76
2022/04/05 04:22:15;;;;;;;;;;;;;;;;;;4437964;32;20033;-77
2022/04/05 04:24:41;;;;;;;53.97;23.73;;;;;;;;;;4424156;32;19936;-77
2022/04/05 04:27:06;;;;;;;;;;;;;;;;;;4423042;32;20026;-77
2022/04/05 04:29:32;;;;;;;47.13;23.35;;;;;;;;;;4423132;32;20399;-77
2022/04/05 04:31:57;;;;;;;;;;;;;;;;;;4423130;32;20030;-76
2022/04/05 04:34:22;;;;;;;44.28;21.33;;;;;;;;;;4423766;32;19936;-76
2022/04/05 04:36:47;;;;;;;;;;;;;;;;;;4424276;32;20367;-76
2022/04/05 04:39:16;;;;;;;43.40;22.17;;;;;;;;;;4436893;32;19932;-77
2022/04/05 04:41:42;;;;;;;37.25;20.80;;;;;;;;;;4436805;32;20022;-77
2022/04/05 04:44:07;;;;;;;;;;;;;;;;;;4424174;32;20021;-77
2022/04/05 04:46:32;;;;;;;42.72;19.50;;;;;;;;;;4423203;32;19937;-77
2022/04/05 04:48:57;;;;;;;;;;;;;;;;;;4422896;32;20025;-76
2022/04/05 04:51:22;;;;;;;33.83;17.67;;;;;;;;;;4422817;32;19928;-77
2022/04/05 04:53:47;;;;;;;;;;;;;;;;;;4436650;32;20021;-76
2022/04/05 04:56:13;;;;;;;38.17;17.37;;;;;;;;;;4424062;32;20298;-77
2022/04/05 04:58:38;;;;;;;;;;;;;;;;;;4437386;32;20055;-77
2022/04/05 05:01:03;;;;;;;36.00;17.25;;;;;;;;;;4422183;32;19980;-78
2022/04/05 05:03:28;;;;;;;;;;;;;;;;;;4422464;32;20484;-78
2022/04/05 05:05:54;;;;;;;25.98;14.77;;;;;;;;;;4436343;32;19971;-77
2022/04/05 05:08:19;;;;;;;;;;;;;;;;;;4437336;32;20483;-77
2022/04/05 05:10:44;;;;;;;28.02;14.18;;;;;;;;;;4435609;32;19943;-78
2022/04/05 05:13:09;;;;;;;;;;;;;;;;;;4422640;32;20033;-77
2022/04/05 05:15:34;;;;;;;33.47;14.23;;;;;;;;;;4422753;32;19966;-76
2022/04/05 05:18:00;;;;;;;;;;;;;;;;;;4423771;32;20080;-76
2022/04/05 05:20:25;;;;;;;23.23;11.68;;;;;;;;;;4436535;32;19937;-78
2022/04/05 05:22:50;;;;;;;;;;;;;;;;;;4423198;32;20025;-77
2022/04/05 05:25:15;;;;;;;20.40;12.43;;;;;;;;;;4436075;32;19941;-77
2022/04/05 05:27:40;;;;;;;;;;;;;;;;;;4423346;32;20118;-78
2022/04/05 05:30:07;;;;;;;20.20;11.15;;;;;;;;;;4435895;32;19947;-78
2022/04/05 05:32:32;;;;;;;28.70;12.15;;;;;;;;;;4437540;32;20091;-77
2022/04/05 05:34:57;;;;;;;;;;;;;;;;;;4436425;32;20056;-77
2022/04/05 05:37:22;;;;;;;26.85;11.15;;;;;;;;;;4435334;32;20010;-78
2022/04/05 05:39:48;;;;;;;17.83;10.75;;;;;;;;;;4422013;32;20026;-77
2022/04/05 05:42:13;;;;;;;;;;;;;;;;;;4422811;32;20037;-77
2022/04/05 05:44:38;;;;;;;18.65;11.02;;;;;;;;;;4436126;32;20291;-74
2022/04/05 05:47:04;;;;;;;;;;;;;;;;;;4422017;32;20018;-77
2022/04/05 05:49:29;;;;;;;19.15;10.93;;;;;;;;;;4436702;32;19933;-76
2022/04/05 05:51:55;;;;;;;;;;;;;;;;;;4421940;32;20056;-78
2022/04/05 05:54:20;;;;;;;18.73;11.95;;;;;;;;;;4421413;32;19988;-78
2022/04/05 05:56:45;;;;;;;;;;;;;;;;;;4435126;32;20439;-77
2022/04/05 05:59:11;;;;;;;25.15;10.75;;;;;;;;;;4421769;32;19962;-76
2022/04/05 06:01:36;;;;;;;;;;;;;;;;;;4435338;32;20340;-77
2022/04/05 06:04:01;;;;;;;25.77;11.38;;;;;;;;;;4435567;32;19945;-78
2022/04/05 06:06:28;;;;;;;;;;;;;;;;;;4421692;32;20449;-77
2022/04/05 06:08:54;;;;;;;22.40;10.77;;;;;;;;;;4436586;32;19932;-78
2022/04/05 06:11:19;;;;;;;;;;;;;;;;;;4419559;32;20045;-77
2022/04/05 06:13:44;;;;;;;16.02;9.55;;;;;;;;;;4432649;32;20034;-77
2022/04/05 06:16:09;;;;;;;;;;;;;;;;;;4431688;32;20037;-78
2022/04/05 06:18:35;;;;;;;25.20;10.55;;;;;;;;;;4428306;32;19933;-76
2022/04/05 06:21:00;;;;;;;;;;;;;;;;;;4423781;32;20461;-77
2022/04/05 06:23:25;;;;;;;21.73;9.60;;;;;;;;;;4432858;32;20321;-78
2022/04/05 06:25:50;;;;;;;;;;;;;;;;;;4436504;32;20148;-77
2022/04/05 06:28:18;;;;;;;13.05;8.68;;;;;;;;;;4422732;32;19937;-78
2022/04/05 06:30:43;;;;;;;19.12;9.45;;;;;;;;;;4424315;32;20137;-76
2022/04/05 06:33:08;;;;;;;;;;;;;;;;;;4427614;32;20049;-78
2022/04/05 06:35:34;;;;;;;15.95;9.15;;;;;;;;;;4418641;32;19933;-77
2022/04/05 06:38:00;;;;;;;19.12;8.95;;;;;;;;;;4421896;32;20372;-77
2022/04/05 06:40:25;;;;;;;;;;;;;;;;;;4432469;32;20078;-78
2022/04/05 06:42:50;;;;;;;19.73;9.13;;;;;;;;;;4421812;32;19937;-76
2022/04/05 06:45:17;;;;;;;;;;;;;;;;;;4423959;32;20148;-77
2022/04/05 06:47:43;;;;;;;16.87;8.90;;;;;;;;;;4435474;32;20381;-77
2022/04/05 06:50:08;;;;;;;;;;;;;;;;;;4435862;32;20021;-79
2022/04/05 06:52:37;;;;;;;15.27;8.20;;;;;;;;;;4413334;32;19961;-78
2022/04/05 06:55:03;;;;;;;24.58;8.48;;;;;;;;;;4420533;32;20091;-78
2022/04/05 06:57:28;;;;;;;;;;;;;;;;;;4435692;32;20030;-80
2022/04/05 06:59:54;;;;;;;18.70;8.48;;;;;;;;;;4435920;32;19945;-80
2022/04/05 07:02:19;;;;;;;21.23;8.20;;;;;;;;;;4436236;32;20368;-78
2022/04/05 07:04:44;;;;;;;;;;;;;;;;;;4436172;32;20053;-78
2022/04/05 07:07:09;;;;;;;9.55;6.93;;;;;;;;;;4435728;32;19976;-80
2022/04/05 07:09:34;;;;;;;;;;;;;;;;;;4435363;32;20030;-79
2022/04/05 07:12:00;;;;;;;8.90;5.20;;;;;;;;;;4421317;32;19933;-76
2022/04/05 07:14:25;;;;;;;;;;;;;;;;;;4434763;32;20025;-78
2022/04/05 07:16:50;;;;;;;11.95;5.95;;;;;;;;;;4431365;32;19936;-77
2022/04/05 07:19:15;;;;;;;;;;;;;;;;;;4433498;32;20025;-77
2022/04/05 07:21:40;;;;;;;12.77;5.45;;;;;;;;;;4427129;32;20301;-77
2022/04/05 07:24:05;;;;;;;;;;;;;;;;;;4421834;32;20026;-77
2022/04/05 07:26:30;;;;;;;8.68;5.55;;;;;;;;;;4422666;32;19955;-79
2022/04/05 07:28:55;;;;;;;;;;;;;;;;;;4422185;32;20067;-77
2022/04/05 07:31:21;;;;;;;13.45;6.20;;;;;;;;;;4421166;32;19952;-75
2022/04/05 07:33:46;;;;;;;;;;;;;;;;;;4421993;32;20186;-77
2022/04/05 07:36:11;;;;;;;12.35;5.80;;;;;;;;;;4421577;32;20363;-75
2022/04/05 07:38:36;;;;;;;;;;;;;;;;;;4423892;32;20344;-77
2022/04/05 07:41:01;;;;;;;12.35;5.40;;;;;;;;;;4438339;32;19992;-78
2022/04/05 07:43:27;;;;;;;10.98;5.53;;;;;;;;;;4438023;32;20408;-78
2022/04/05 07:45:54;;;;;;;10.50;5.65;;;;;;;;;;4434136;32;20061;-77
2022/04/05 07:48:20;;;;;;;9.85;5.68;;;;;;;;;;4422852;32;20045;-77
2022/04/05 07:50:46;;;;;;;10.13;6.07;;;;;;;;;;4437948;32;20052;-77
2022/04/05 07:53:12;;;;;;;12.57;6.72;;;;;;;;;;4437965;32;20022;-78
2022/04/05 07:55:37;;;;;;;;;;;;;;;;;;4424422;32;20074;-78
2022/04/05 07:58:02;;;;;;;11.18;6.10;;;;;;;;;;4423046;32;19998;-78
2022/04/05 08:00:28;;;;;;;14.50;7.57;;;;;;;;;;4423376;32;20434;-79
2022/04/05 08:02:53;;;;;;;;;;;;;;;;;;4439140;32;20061;-78
2022/04/05 08:05:19;;;;;;;10.40;6.10;;;;;;;;;;4422493;32;20048;-79
2022/04/05 08:07:46;;;;;;;14.80;6.12;;;;;;;;;;4436180;32;20052;-76
2022/04/05 08:10:13;;;;;;;12.55;6.35;;;;;;;;;;4435502;32;20041;-78
2022/04/05 08:12:39;;;;;;;16.17;7.00;;;;;;;;;;4437320;32;20082;-79
2022/04/05 08:15:04;;;;;;;17.00;6.22;;;;;;;;;;4423168;32;20029;-78
2022/04/05 08:17:30;;;;;;;;;;;;;;;;;;4424828;32;20078;-78
2022/04/05 08:19:55;;;;;;;13.05;7.37;;;;;;;;;;4423809;32;19933;-78
2022/04/05 08:22:21;;;;;;;;;;;;;;;;;;4438735;32;20056;-77
2022/04/05 08:24:46;;;;;;;26.67;10.93;;;;;;;;;;4437452;32;19967;-77
2022/04/05 08:27:11;;;;;;;;;;;;;;;;;;4437014;32;20132;-77
2022/04/05 08:29:40;;;;;;;16.27;7.25;;;;;;;;;;4422611;32;19962;-77
2022/04/05 08:32:05;;;;;;;12.13;6.95;;;;;;;;;;4437634;32;20050;-79
2022/04/05 08:34:31;;;;;;;;;;;;;;;;;;4396256;32;20041;-79
2022/04/05 08:36:57;;;;;;;17.48;7.37;;;;;;;;;;4421733;32;19974;-78
2022/04/05 08:39:22;;;;;;;11.70;6.68;;;;;;;;;;4421955;32;20077;-78
2022/04/05 08:41:48;;;;;;;;;;;;;;;;;;4417063;32;20021;-77
2022/04/05 08:44:15;;;;;;;17.87;7.00;;;;;;;;;;4438092;32;19951;-78
2022/04/05 08:46:41;;;;;;;18.08;8.10;;;;;;;;;;4432775;32;20061;-77
2022/04/05 08:49:06;;;;;;;;;;;;;;;;;;4437232;32;20084;-76
2022/04/05 08:51:31;;;;;;;11.80;7.00;;;;;;;;;;4422640;32;20318;-77
2022/04/05 08:53:57;;;;;;;;;;;;;;;;;;4422719;32;20056;-77
2022/04/05 08:56:26;;;;;;;13.27;7.22;;;;;;;;;;4423386;32;20353;-78
2022/04/05 08:58:52;;;;;;;10.93;6.32;;;;;;;;;;4436931;32;20025;-76
2022/04/05 09:01:17;;;;;;;;;;;;;;;;;;4437448;32;20105;-76
2022/04/05 09:03:42;;;;;;;14.95;6.28;;;;;;;;;;4435728;32;19940;-77
2022/04/05 09:06:07;;;;;;;;;;;;;;;;;;4407956;32;20029;-77
2022/04/05 09:08:32;;;;;;;12.40;6.82;;;;;;;;;;4408812;32;19975;-77
2022/04/05 09:10:58;;;;;;;;;;;;;;;;;;4436975;32;20396;-76
2022/04/05 09:13:25;;;;;;;12.63;6.97;;;;;;;;;;4436076;32;19983;-77
2022/04/05 09:15:51;;;;;;;13.25;6.20;;;;;;;;;;4410833;32;20025;-76
2022/04/05 09:18:46;;;;;;;13.27;5.90;;;;;;;;;;4413591;32;20054;-77
2022/04/05 09:21:14;;;;;;;12.50;6.78;;;;;;;;;;4406126;32;20025;-76
2022/04/05 09:23:43;;;;;;;11.85;5.82;;;;;;;;;;4435915;32;20045;-78
2022/04/05 09:26:13;;;;;;;11.30;5.90;;;;;;;;;;4426951;32;20060;-78
2022/04/05 09:28:39;;;;;;;11.00;5.57;;;;;;;;;;4422336;32;20125;-78
2022/04/05 09:31:06;;;;;;;14.85;6.07;;;;;;;;;;4421260;32;20097;-78
2022/04/05 09:33:32;;;;;;;17.08;6.93;;;;;;;;;;4420709;32;20038;-77
2022/04/05 09:36:07;;;;;;;16.08;5.78;;;;;;;;;;4419721;32;20068;-77
2022/04/05 09:38:32;;;;;;;16.05;6.20;;;;;;;;;;4420185;32;20038;-78
2022/04/05 09:40:57;;;;;;;;;;;;;;;;;;4436887;32;20102;-76
2022/04/05 09:43:23;;;;;;;14.00;5.22;;;;;;;;;;4421736;32;19968;-77
2022/04/05 09:45:48;;;;;;;;;;;;;;;;;;4437353;32;20048;-79
2022/04/05 09:48:14;;;;;;;13.77;5.85;;;;;;;;;;4421354;32;19982;-78
2022/04/05 09:50:59;;;;;;;9.85;5.18;;;;;;;;;;4435548;32;20029;-78
2022/04/05 09:53:25;;;;;;;13.90;5.85;;;;;;;;;;4436693;32;20042;-78
2022/04/05 09:55:50;;;;;;;;;;;;;;;;;;4436035;32;20441;-77
2022/04/05 09:58:15;;;;;;;11.40;5.20;;;;;;;;;;4422822;32;19941;-78
2022/04/05 10:00:41;;;;;;;;;;;;;;;;;;4436329;32;20492;-76
2022/04/05 10:03:08;;;;;;;12.43;4.82;;;;;;;;;;4421669;32;19940;-78
2022/04/05 10:05:34;;;;;;;15.38;5.30;;;;;;;;;;4422405;32;20037;-79
2022/04/05 10:07:59;;;;;;;;;;;;;;;;;;4436747;32;20087;-78
2022/04/05 10:10:25;;;;;;;13.98;4.68;;;;;;;;;;4422305;32;20262;-79
2022/04/05 10:12:50;;;;;;;;;;;;;;;;;;4423485;32;20117;-78
2022/04/05 10:15:15;;;;;;;13.07;5.72;;;;;;;;;;4423946;32;19941;-77
2022/04/05 10:17:44;;;;;;;10.90;5.28;;;;;;;;;;4438057;32;20037;-77
2022/04/05 10:20:09;;;;;;;10.18;5.00;;;;;;;;;;4439705;32;20030;-78
2022/04/05 10:22:34;;;;;;;;;;;;;;;;;;4425614;32;20383;-78
2022/04/05 10:24:59;;;;;;;12.43;5.37;;;;;;;;;;4435943;32;19937;-78
2022/04/05 10:27:25;;;;;;;;;;;;;;;;;;4437720;32;20026;-79
2022/04/05 10:29:56;;;;;;;9.82;5.15;;;;;;;;;;4408840;32;19932;-78
2022/04/05 10:32:36;;;;;;;12.37;5.43;;;;;;;;;;4421026;32;20594;-77
2022/04/05 10:35:03;;;;;;;8.75;5.53;;;;;;;;;;4420870;32;20057;-77
2022/04/05 10:37:29;;;;;;;11.55;5.57;;;;;;;;;;4421934;32;20399;-76
2022/04/05 10:39:57;;;;;;;13.70;5.87;;;;;;;;;;4418736;32;20061;-77
2022/04/05 10:42:25;;;;;;;11.15;5.68;;;;;;;;;;4425273;32;20139;-79
2022/04/05 10:45:07;;;;;;;10.77;5.68;;;;;;;;;;4434150;32;20072;-79
2022/04/05 10:47:32;;;;;;;11.77;6.45;;;;;;;;;;4407279;32;20033;-78
2022/04/05 10:49:57;;;;;;;;;;;;;;;;;;4419756;32;20052;-78
2022/04/05 10:52:31;;;;;;;8.30;5.45;;;;;;;;;;4419845;32;20103;-78
2022/04/05 10:55:04;;;;;;;10.38;6.43;;;;;;;;;;4420416;32;20018;-78
2022/04/05 10:57:30;;;;;;;7.87;5.65;;;;;;;;;;4418739;32;20063;-77
2022/04/05 10:59:58;;;;;;;10.02;5.28;;;;;;;;;;4434646;32;20029;-78
2022/04/05 11:02:28;;;;;;;10.27;5.35;;;;;;;;;;4424284;32;20030;-78
2022/04/05 11:05:04;;;;;;;11.12;6.32;;;;;;;;;;4438358;32;20057;-78
2022/04/05 11:07:50;;;;;;;12.02;6.78;;;;;;;;;;4438074;32;20149;-79
2022/04/05 11:10:17;;;;;;;9.85;5.62;;;;;;;;;;4438485;32;20038;-77
2022/04/05 11:12:43;;;;;;;14.23;6.87;;;;;;;;;;4411811;32;20064;-77
2022/04/05 11:15:08;;;;;;;;;;;;;;;;;;4413251;32;20052;-80
2022/04/05 11:17:35;;;;;;;10.38;5.80;;;;;;;;;;4440286;32;19944;-79
2022/04/05 11:20:01;;;;;;;9.00;5.80;;;;;;;;;;4426384;32;20022;-79
2022/04/05 11:22:26;;;;;;;;;;;;;;;;;;4442542;32;20033;-77
2022/04/05 11:24:55;;;;;;;8.73;5.73;;;;;;;;;;4441566;32;19933;-78
2022/04/05 11:27:28;;;;;;;11.12;5.87;;;;;;;;;;4442508;32;20148;-77
2022/04/05 11:30:12;;;;;;;8.05;5.95;;;;;;;;;;4442642;32;20069;-78
2022/04/05 11:32:37;;;;;;;12.32;5.85;;;;;;;;;;4427197;32;20419;-77
2022/04/05 11:35:02;;;;;;;;;;;;;;;;;;4441960;32;20061;-79
2022/04/05 11:37:34;;;;;;;9.02;5.60;;;;;;;;;;4438548;32;19945;-77
2022/04/05 11:40:00;;;;;;;8.85;6.25;;;;;;;;;;4424115;32;20037;-78
2022/04/05 11:42:25;;;;;;;8.38;6.47;;;;;;;;;;4425415;32;20033;-78
2022/04/05 11:44:52;;;;;;;10.63;5.85;;;;;;;;;;4438391;32;20389;-77
2022/04/05 11:47:18;;;;;;;9.35;5.85;;;;;;;;;;4423828;32;20038;-78
2022/04/05 11:49:43;;;;;;;11.68;6.82;;;;;;;;;;4424019;32;20109;-79
2022/04/05 11:52:10;;;;;;;;;;;;;;;;;;4423037;32;20026;-78
2022/04/05 11:56:00;;;;;;;10.07;6.40;;;;;;;;;;4437384;32;19947;-79
2022/04/05 11:57:20;;;;;;;9.90;6.90;;;;;;;;;;4438362;32;20017;-78
2022/04/05 11:59:45;;;;;;;;;;;;;;;;;;4422907;32;20034;-77
2022/04/05 12:02:10;;;;;;;13.10;6.53;;;;;;;;;;4438464;32;19948;-77
2022/04/05 12:04:36;;;;;;;10.20;6.45;;;;;;;;;;4438075;32;20148;-77
2022/04/05 12:07:03;;;;;;;7.43;6.05;;;;;;;;;;4437472;32;20047;-77
2022/04/05 12:09:30;;;;;;;10.10;6.07;;;;;;;;;;4423561;32;20044;-78
2022/04/05 12:11:55;;;;;;;10.48;6.93;;;;;;;;;;4422979;32;20025;-78
2022/04/05 12:14:21;;;;;;;;;;;;;;;;;;4437518;32;20489;-78
2022/04/05 12:16:47;;;;;;;12.82;6.72;;;;;;;;;;4422632;32;19967;-77
2022/04/05 12:19:16;;;;;;;8.98;6.68;;;;;;;;;;4438622;32;20052;-76
2022/04/05 12:21:42;;;;;;;11.98;7.22;;;;;;;;;;4436273;32;20021;-77
2022/04/05 12:24:07;;;;;;;;;;;;;;;;;;4422846;32;20045;-77
2022/04/05 12:26:32;;;;;;;8.93;6.62;;;;;;;;;;4422160;32;20235;-77
2022/04/05 12:28:58;;;;;;;10.73;8.00;;;;;;;;;;4422337;32;20021;-78
2022/04/05 12:31:27;;;;;;;15.02;8.55;;;;;;;;;;4418399;32;20037;-79
2022/04/05 12:33:53;;;;;;;18.45;8.18;;;;;;;;;;4437564;32;20083;-77
2022/04/05 12:36:19;;;;;;;;;;;;;;;;;;4438287;32;20029;-76
2022/04/05 12:38:44;;;;;;;17.58;9.05;;;;;;;;;;4420461;32;20013;-75
2022/04/05 12:41:12;;;;;;;13.05;8.05;;;;;;;;;;4422686;32;20033;-77
2022/04/05 12:43:38;;;;;;;17.80;8.40;;;;;;;;;;4436328;32;20021;-77
2022/04/05 12:46:03;;;;;;;;;;;;;;;;;;4424172;32;20034;-77
2022/04/05 12:48:28;;;;;;;14.38;9.02;;;;;;;;;;4423578;32;19941;-77
2022/04/05 12:50:54;;;;;;;12.85;8.80;;;;;;;;;;4423069;32;20101;-78
2022/04/05 12:53:19;;;;;;;;;;;;;;;;;;4436630;32;20034;-78
2022/04/05 12:55:53;;;;;;;13.48;8.30;;;;;;;;;;4436328;32;20322;-77
2022/04/05 12:58:32;;;;;;;10.52;7.53;;;;;;;;;;4437749;32;20253;-77
2022/04/05 13:00:57;;;;;;;14.63;7.80;;;;;;;;;;4420416;32;20069;-78
2022/04/05 13:03:22;;;;;;;;;;;;;;;;;;4422125;32;20100;-77
2022/04/05 13:08:35;;;;;;;13.88;6.18;;;;;;;;;;4421381;32;20059;-78
2022/04/05 13:11:01;;;;;;;11.82;7.62;;;;;;;;;;4422520;32;20026;-77
2022/04/05 13:13:26;;;;;;;;;;;;;;;;;;4422869;32;20026;-77
2022/04/05 13:16:03;;;;;;;16.15;6.93;;;;;;;;;;4436385;32;19933;-78
2022/04/05 13:18:35;;;;;;;14.87;7.57;;;;;;;;;;4436468;32;20030;-78
2022/04/05 13:21:04;;;;;;;13.02;6.97;;;;;;;;;;4421021;32;20051;-78
2022/04/05 13:23:31;;;;;;;18.00;8.02;;;;;;;;;;4435513;32;20453;-79
2022/04/05 13:25:57;;;;;;;11.75;6.10;;;;;;;;;;4435395;32;20029;-77
2022/04/05 13:28:22;;;;;;;;;;;;;;;;;;4436162;32;20093;-77
2022/04/05 13:30:47;;;;;;;22.75;7.07;;;;;;;;;;4422386;32;19951;-77
2022/04/05 13:33:14;;;;;;;15.52;7.18;;;;;;;;;;4421333;32;20053;-77
2022/04/05 13:35:39;;;;;;;9.98;5.87;;;;;;;;;;4421481;32;20063;-78
2022/04/05 13:38:04;;;;;;;;;;;;;;;;;;4435628;32;20093;-78
2022/04/05 13:40:29;;;;;;;12.57;6.05;;;;;;;;;;4427371;32;19941;-78
2022/04/05 13:42:54;;;;;;;;;;;;;;;;;;4421206;32;20121;-77
2022/04/05 13:45:21;;;;;;;10.93;5.20;;;;;;;;;;4419983;32;19937;-77
2022/04/05 13:47:46;;;;;;;11.98;6.28;;;;;;;;;;4421367;32;20128;-78
2022/04/05 13:50:11;;;;;;;;;;;;;;;;;;4421869;32;20068;-78
2022/04/05 13:52:36;;;;;;;12.43;4.95;;;;;;;;;;4421804;32;19944;-77
2022/04/05 13:55:04;;;;;;;;;;;;;;;;;;4436102;32;20152;-77
2022/04/05 13:57:29;;;;;;;10.02;5.78;;;;;;;;;;4421493;32;19933;-78
2022/04/05 13:59:54;;;;;;;10.27;6.05;;;;;;;;;;4435504;32;20026;-77
2022/04/05 14:02:19;;;;;;;;;;;;;;;;;;4421879;32;20048;-77
2022/04/05 14:04:44;;;;;;;17.50;7.50;;;;;;;;;;4437706;32;19989;-77
2022/04/05 14:07:11;;;;;;;12.98;8.10;;;;;;;;;;4421721;32;20411;-77
2022/04/05 14:09:36;;;;;;;11.57;8.00;;;;;;;;;;4422359;32;20116;-76
2022/04/05 14:12:02;;;;;;;;;;;;;;;;;;4422026;32;20041;-75
2022/04/05 14:14:27;;;;;;;16.83;9.63;;;;;;;;;;4421830;32;19966;-76
2022/04/05 14:16:53;;;;;;;17.85;8.80;;;;;;;;;;4435854;32;20057;-77
2022/04/05 14:19:18;;;;;;;;;;;;;;;;;;4423119;32;20098;-77
2022/04/05 14:21:43;;;;;;;16.87;9.35;;;;;;;;;;4421125;32;19980;-77
2022/04/05 14:24:08;;;;;;;;;;;;;;;;;;4437182;32;20144;-77
2022/04/05 14:26:33;;;;;;;14.95;9.45;;;;;;;;;;4433368;32;20326;-78
2022/04/05 14:28:59;;;;;;;;;;;;;;;;;;4432375;32;20029;-77
2022/04/05 14:31:24;;;;;;;18.15;9.23;;;;;;;;;;4436564;32;19941;-77
2022/04/05 14:33:49;;;;;;;;;;;;;;;;;;4429040;32;20053;-78
2022/04/05 14:36:14;;;;;;;20.26;8.32;;;;;;;;;;4421668;32;19948;-78
2022/04/05 14:38:39;;;;;;;;;;;;;;;;;;4421286;32;20038;-77
2022/04/05 14:41:05;;;;;;;19.70;7.47;;;;;;;;;;4423307;32;20318;-78
2022/04/05 14:43:30;;;;;;;;;;;;;;;;;;4421967;32;20593;-78
2022/04/05 14:45:55;;;;;;;14.75;7.10;;;;;;;;;;4421465;32;19941;-78
2022/04/05 14:48:20;;;;;;;17.33;6.62;;;;;;;;;;4421854;32;20026;-78
2022/04/05 14:50:46;;;;;;;;;;;;;;;;;;4423392;32;20060;-77
2022/04/05 14:53:11;;;;;;;13.40;6.05;;;;;;;;;;4422991;32;19942;-77
2022/04/05 14:55:36;;;;;;;;;;;;;;;;;;4424619;32;20053;-79
2022/04/05 14:58:02;;;;;;;14.18;6.20;;;;;;;;;;4428627;32;19992;-78
2022/04/05 15:00:27;;;;;;;12.00;6.50;;;;;;;;;;4425256;32;20408;-78
2022/04/05 15:02:52;;;;;;;;;;;;;;;;;;4425643;32;20125;-77
2022/04/05 15:05:17;;;;;;;10.13;6.53;;;;;;;;;;4423526;32;19933;-78